sensor_id;sensor_type;location;lat;lon;timestamp;P1;durP1;ratioP1;P2;durP2;ratioP2
3591;SDS011;1810;48.720;9.094;2023-01-23T00:02:16;414.52;;;395.40;;
3591;SDS011;1810;48.720;9.094;2023-01-23T00:04:45;415.15;;;396.25;;
3591;SDS011;1810;48.720;9.094;2023-01-23T00:07:24;412.95;;;394.20;;
3591;SDS011;1810;48.720;9.094;2023-01-23T00:09:55;404.42;;;385.92;;
3591;SDS011;1810;48.720;9.094;2023-01-23T00:12:53;424.50;;;405.08;;
3591;SDS011;1810;48.720;9.094;2023-01-23T00:15:27;434.67;;;414.63;;
3591;SDS011;1810;48.720;9.094;2023-01-23T00:17:56;412.98;;;394.10;;
3591;SDS011;1810;48.720;9.094;2023-01-23T00:20:56;423.65;;;403.90;;
3591;SDS011;1810;48.720;9.094;2023-01-23T00:23:40;408.13;;;389.42;;
3591;SDS011;1810;48.720;9.094;2023-01-23T00:26:13;410.48;;;390.98;;
3591;SDS011;1810;48.720;9.094;2023-01-23T00:28:44;403.48;;;385.13;;
3591;SDS011;1810;48.720;9.094;2023-01-23T00:31:16;406.35;;;387.65;;
3591;SDS011;1810;48.720;9.094;2023-01-23T00:33:47;420.00;;;400.60;;
3591;SDS011;1810;48.720;9.094;2023-01-23T00:36:23;403.02;;;384.65;;
3591;SDS011;1810;48.720;9.094;2023-01-23T00:39:04;436.00;;;415.73;;
3591;SDS011;1810;48.720;9.094;2023-01-23T00:41:34;382.27;;;365.05;;
3591;SDS011;1810;48.720;9.094;2023-01-23T00:44:03;406.73;;;388.35;;
3591;SDS011;1810;48.720;9.094;2023-01-23T00:46:32;402.10;;;383.65;;
3591;SDS011;1810;48.720;9.094;2023-01-23T00:49:03;408.88;;;390.35;;
3591;SDS011;1810;48.720;9.094;2023-01-23T00:51:48;389.13;;;371.38;;
3591;SDS011;1810;48.720;9.094;2023-01-23T00:54:25;406.35;;;387.95;;
3591;SDS011;1810;48.720;9.094;2023-01-23T00:57:03;394.50;;;376.85;;
3591;SDS011;1810;48.720;9.094;2023-01-23T00:59:35;393.20;;;375.63;;
3591;SDS011;1810;48.720;9.094;2023-01-23T01:02:08;389.45;;;371.85;;
3591;SDS011;1810;48.720;9.094;2023-01-23T01:04:51;401.20;;;383.17;;
3591;SDS011;1810;48.720;9.094;2023-01-23T01:07:24;404.08;;;385.85;;
3591;SDS011;1810;48.720;9.094;2023-01-23T01:09:56;408.55;;;389.95;;
3591;SDS011;1810;48.720;9.094;2023-01-23T01:12:31;418.45;;;398.95;;
3591;SDS011;1810;48.720;9.094;2023-01-23T01:15:00;401.13;;;383.17;;
3591;SDS011;1810;48.720;9.094;2023-01-23T01:17:31;384.75;;;367.48;;
3591;SDS011;1810;48.720;9.094;2023-01-23T01:20:00;382.63;;;365.27;;
3591;SDS011;1810;48.720;9.094;2023-01-23T01:22:34;413.75;;;395.05;;
3591;SDS011;1810;48.720;9.094;2023-01-23T01:25:06;401.13;;;382.27;;
3591;SDS011;1810;48.720;9.094;2023-01-23T01:27:40;390.70;;;372.83;;
3591;SDS011;1810;48.720;9.094;2023-01-23T01:30:22;407.35;;;388.88;;
3591;SDS011;1810;48.720;9.094;2023-01-23T01:32:55;418.67;;;399.33;;
3591;SDS011;1810;48.720;9.094;2023-01-23T01:35:27;416.10;;;397.35;;
3591;SDS011;1810;48.720;9.094;2023-01-23T01:38:00;413.08;;;394.27;;
3591;SDS011;1810;48.720;9.094;2023-01-23T01:40:30;403.20;;;384.83;;
3591;SDS011;1810;48.720;9.094;2023-01-23T01:43:08;394.42;;;376.58;;
3591;SDS011;1810;48.720;9.094;2023-01-23T01:48:40;368.48;;;352.02;;
3591;SDS011;1810;48.720;9.094;2023-01-23T01:51:16;395.85;;;378.10;;
3591;SDS011;1810;48.720;9.094;2023-01-23T01:53:54;411.30;;;392.30;;
3591;SDS011;1810;48.720;9.094;2023-01-23T01:56:29;390.88;;;373.20;;
3591;SDS011;1810;48.720;9.094;2023-01-23T01:59:03;411.80;;;393.13;;
3591;SDS011;1810;48.720;9.094;2023-01-23T02:01:33;414.35;;;395.25;;
3591;SDS011;1810;48.720;9.094;2023-01-23T02:04:05;407.02;;;388.52;;
3591;SDS011;1810;48.720;9.094;2023-01-23T02:06:36;409.05;;;390.13;;
3591;SDS011;1810;48.720;9.094;2023-01-23T02:09:07;412.73;;;392.65;;
3591;SDS011;1810;48.720;9.094;2023-01-23T02:11:39;419.10;;;399.90;;
3591;SDS011;1810;48.720;9.094;2023-01-23T02:14:08;401.05;;;382.38;;
3591;SDS011;1810;48.720;9.094;2023-01-23T02:16:39;404.25;;;385.67;;
3591;SDS011;1810;48.720;9.094;2023-01-23T02:19:15;405.40;;;386.77;;
3591;SDS011;1810;48.720;9.094;2023-01-23T02:21:56;411.38;;;392.27;;
3591;SDS011;1810;48.720;9.094;2023-01-23T02:24:34;394.30;;;376.10;;
3591;SDS011;1810;48.720;9.094;2023-01-23T02:27:07;380.67;;;363.67;;
3591;SDS011;1810;48.720;9.094;2023-01-23T02:29:39;390.70;;;372.85;;
3591;SDS011;1810;48.720;9.094;2023-01-23T02:32:12;390.33;;;372.73;;
3591;SDS011;1810;48.720;9.094;2023-01-23T02:34:40;386.77;;;369.60;;
3591;SDS011;1810;48.720;9.094;2023-01-23T02:37:10;374.65;;;357.73;;
3591;SDS011;1810;48.720;9.094;2023-01-23T02:39:42;352.60;;;336.95;;
3591;SDS011;1810;48.720;9.094;2023-01-23T02:42:12;361.02;;;344.70;;
3591;SDS011;1810;48.720;9.094;2023-01-23T02:44:41;382.50;;;365.42;;
3591;SDS011;1810;48.720;9.094;2023-01-23T02:47:10;405.38;;;386.95;;
3591;SDS011;1810;48.720;9.094;2023-01-23T02:49:38;379.63;;;362.80;;
3591;SDS011;1810;48.720;9.094;2023-01-23T02:52:08;389.55;;;372.00;;
3591;SDS011;1810;48.720;9.094;2023-01-23T02:54:37;397.30;;;378.70;;
3591;SDS011;1810;48.720;9.094;2023-01-23T02:57:06;387.40;;;369.85;;
3591;SDS011;1810;48.720;9.094;2023-01-23T02:59:36;375.45;;;358.55;;
3591;SDS011;1810;48.720;9.094;2023-01-23T03:02:22;388.13;;;370.63;;
3591;SDS011;1810;48.720;9.094;2023-01-23T03:04:54;357.95;;;341.98;;
3591;SDS011;1810;48.720;9.094;2023-01-23T03:07:26;378.13;;;361.33;;
3591;SDS011;1810;48.720;9.094;2023-01-23T03:10:02;405.70;;;386.92;;
3591;SDS011;1810;48.720;9.094;2023-01-23T03:12:33;386.17;;;368.98;;
3591;SDS011;1810;48.720;9.094;2023-01-23T03:15:08;354.40;;;338.35;;
3591;SDS011;1810;48.720;9.094;2023-01-23T03:17:43;381.83;;;364.80;;
3591;SDS011;1810;48.720;9.094;2023-01-23T03:20:16;426.95;;;407.20;;
3591;SDS011;1810;48.720;9.094;2023-01-23T03:22:51;379.45;;;361.90;;
3591;SDS011;1810;48.720;9.094;2023-01-23T03:25:26;374.73;;;358.10;;
3591;SDS011;1810;48.720;9.094;2023-01-23T03:27:57;382.77;;;365.20;;
3591;SDS011;1810;48.720;9.094;2023-01-23T03:30:30;386.60;;;368.70;;
3591;SDS011;1810;48.720;9.094;2023-01-23T03:33:03;363.25;;;346.85;;
3591;SDS011;1810;48.720;9.094;2023-01-23T03:35:35;383.30;;;365.88;;
3591;SDS011;1810;48.720;9.094;2023-01-23T03:38:09;396.50;;;378.17;;
3591;SDS011;1810;48.720;9.094;2023-01-23T03:40:40;385.85;;;368.45;;
3591;SDS011;1810;48.720;9.094;2023-01-23T03:43:43;402.40;;;383.92;;
3591;SDS011;1810;48.720;9.094;2023-01-23T03:46:16;375.90;;;359.15;;
3591;SDS011;1810;48.720;9.094;2023-01-23T03:49:15;370.00;;;353.27;;
3591;SDS011;1810;48.720;9.094;2023-01-23T03:51:48;361.50;;;345.63;;
3591;SDS011;1810;48.720;9.094;2023-01-23T03:54:17;363.13;;;346.98;;
3591;SDS011;1810;48.720;9.094;2023-01-23T03:56:47;346.33;;;330.88;;
3591;SDS011;1810;48.720;9.094;2023-01-23T03:59:18;375.35;;;357.85;;
3591;SDS011;1810;48.720;9.094;2023-01-23T04:01:49;400.42;;;381.65;;
3591;SDS011;1810;48.720;9.094;2023-01-23T04:04:18;377.88;;;360.65;;
3591;SDS011;1810;48.720;9.094;2023-01-23T04:06:46;365.02;;;348.73;;
3591;SDS011;1810;48.720;9.094;2023-01-23T04:09:15;386.25;;;368.77;;
3591;SDS011;1810;48.720;9.094;2023-01-23T04:11:44;405.55;;;387.05;;
3591;SDS011;1810;48.720;9.094;2023-01-23T04:14:13;388.25;;;370.42;;
3591;SDS011;1810;48.720;9.094;2023-01-23T04:16:43;366.25;;;349.55;;
3591;SDS011;1810;48.720;9.094;2023-01-23T04:19:19;383.75;;;366.55;;
3591;SDS011;1810;48.720;9.094;2023-01-23T04:22:01;387.17;;;369.52;;
3591;SDS011;1810;48.720;9.094;2023-01-23T04:24:50;323.88;;;309.73;;
3591;SDS011;1810;48.720;9.094;2023-01-23T04:27:22;359.05;;;342.45;;
3591;SDS011;1810;48.720;9.094;2023-01-23T04:29:51;383.75;;;366.50;;
3591;SDS011;1810;48.720;9.094;2023-01-23T04:32:21;375.45;;;358.75;;
3591;SDS011;1810;48.720;9.094;2023-01-23T04:34:49;386.55;;;369.00;;
3591;SDS011;1810;48.720;9.094;2023-01-23T04:37:18;368.13;;;351.60;;
3591;SDS011;1810;48.720;9.094;2023-01-23T04:39:46;388.27;;;369.85;;
3591;SDS011;1810;48.720;9.094;2023-01-23T04:42:15;384.90;;;367.52;;
3591;SDS011;1810;48.720;9.094;2023-01-23T04:44:43;385.33;;;367.20;;
3591;SDS011;1810;48.720;9.094;2023-01-23T04:47:11;406.58;;;388.08;;
3591;SDS011;1810;48.720;9.094;2023-01-23T04:49:41;404.38;;;384.98;;
3591;SDS011;1810;48.720;9.094;2023-01-23T04:52:10;396.00;;;378.00;;
3591;SDS011;1810;48.720;9.094;2023-01-23T04:54:38;428.70;;;408.58;;
3591;SDS011;1810;48.720;9.094;2023-01-23T04:57:07;364.17;;;347.98;;
3591;SDS011;1810;48.720;9.094;2023-01-23T04:59:36;338.65;;;323.55;;
3591;SDS011;1810;48.720;9.094;2023-01-23T05:02:04;392.67;;;374.52;;
3591;SDS011;1810;48.720;9.094;2023-01-23T05:04:36;372.65;;;355.90;;
3591;SDS011;1810;48.720;9.094;2023-01-23T05:07:06;342.50;;;327.35;;
3591;SDS011;1810;48.720;9.094;2023-01-23T05:09:37;360.48;;;344.20;;
3591;SDS011;1810;48.720;9.094;2023-01-23T05:12:08;361.40;;;344.73;;
3591;SDS011;1810;48.720;9.094;2023-01-23T05:14:37;341.65;;;326.60;;
3591;SDS011;1810;48.720;9.094;2023-01-23T05:17:06;366.42;;;350.33;;
3591;SDS011;1810;48.720;9.094;2023-01-23T05:19:35;378.52;;;361.25;;
3591;SDS011;1810;48.720;9.094;2023-01-23T05:22:07;312.50;;;298.58;;
3591;SDS011;1810;48.720;9.094;2023-01-23T05:24:36;357.20;;;340.75;;
3591;SDS011;1810;48.720;9.094;2023-01-23T05:27:14;391.58;;;373.77;;
3591;SDS011;1810;48.720;9.094;2023-01-23T05:30:07;348.20;;;332.98;;
3591;SDS011;1810;48.720;9.094;2023-01-23T05:32:50;387.67;;;369.75;;
3591;SDS011;1810;48.720;9.094;2023-01-23T05:35:28;356.00;;;340.10;;
3591;SDS011;1810;48.720;9.094;2023-01-23T05:40:56;302.25;;;288.75;;
3591;SDS011;1810;48.720;9.094;2023-01-23T05:43:30;365.05;;;348.67;;
3591;SDS011;1810;48.720;9.094;2023-01-23T05:46:14;338.27;;;323.40;;
3591;SDS011;1810;48.720;9.094;2023-01-23T05:48:48;366.50;;;350.05;;
3591;SDS011;1810;48.720;9.094;2023-01-23T05:51:25;340.00;;;324.77;;
3591;SDS011;1810;48.720;9.094;2023-01-23T05:53:59;305.40;;;292.20;;
3591;SDS011;1810;48.720;9.094;2023-01-23T05:56:34;334.80;;;319.60;;
3591;SDS011;1810;48.720;9.094;2023-01-23T05:59:06;430.48;;;409.98;;
3591;SDS011;1810;48.720;9.094;2023-01-23T06:01:35;366.92;;;350.48;;
3591;SDS011;1810;48.720;9.094;2023-01-23T06:04:04;381.38;;;364.05;;
3591;SDS011;1810;48.720;9.094;2023-01-23T06:06:33;404.75;;;385.92;;
3591;SDS011;1810;48.720;9.094;2023-01-23T06:09:08;325.70;;;311.17;;
3591;SDS011;1810;48.720;9.094;2023-01-23T06:11:37;359.35;;;343.35;;
3591;SDS011;1810;48.720;9.094;2023-01-23T06:14:06;365.35;;;349.00;;
3591;SDS011;1810;48.720;9.094;2023-01-23T06:16:34;377.30;;;360.38;;
3591;SDS011;1810;48.720;9.094;2023-01-23T06:19:05;622.17;;;581.72;;
3591;SDS011;1810;48.720;9.094;2023-01-23T06:21:33;398.55;;;380.30;;
3591;SDS011;1810;48.720;9.094;2023-01-23T06:24:02;371.40;;;354.38;;
3591;SDS011;1810;48.720;9.094;2023-01-23T06:26:32;413.40;;;393.83;;
3591;SDS011;1810;48.720;9.094;2023-01-23T06:29:00;418.10;;;399.10;;
3591;SDS011;1810;48.720;9.094;2023-01-23T06:31:29;391.63;;;373.23;;
3591;SDS011;1810;48.720;9.094;2023-01-23T06:33:58;412.90;;;393.63;;
3591;SDS011;1810;48.720;9.094;2023-01-23T06:36:26;397.60;;;379.30;;
3591;SDS011;1810;48.720;9.094;2023-01-23T06:38:55;404.25;;;386.00;;
3591;SDS011;1810;48.720;9.094;2023-01-23T06:41:25;426.98;;;406.70;;
3591;SDS011;1810;48.720;9.094;2023-01-23T06:43:55;455.67;;;432.63;;
3591;SDS011;1810;48.720;9.094;2023-01-23T06:46:24;410.92;;;392.23;;
3591;SDS011;1810;48.720;9.094;2023-01-23T06:48:52;417.95;;;398.85;;
3591;SDS011;1810;48.720;9.094;2023-01-23T06:51:21;402.55;;;384.35;;
3591;SDS011;1810;48.720;9.094;2023-01-23T06:53:49;410.88;;;391.90;;
3591;SDS011;1810;48.720;9.094;2023-01-23T06:56:18;402.60;;;383.77;;
3591;SDS011;1810;48.720;9.094;2023-01-23T06:58:46;392.70;;;374.77;;
3591;SDS011;1810;48.720;9.094;2023-01-23T07:01:17;439.30;;;418.42;;
3591;SDS011;1810;48.720;9.094;2023-01-23T07:03:46;421.42;;;401.83;;
3591;SDS011;1810;48.720;9.094;2023-01-23T07:06:15;452.38;;;430.67;;
3591;SDS011;1810;48.720;9.094;2023-01-23T07:08:45;434.38;;;413.83;;
3591;SDS011;1810;48.720;9.094;2023-01-23T07:11:18;412.67;;;393.80;;
3591;SDS011;1810;48.720;9.094;2023-01-23T07:13:46;446.52;;;424.90;;
3591;SDS011;1810;48.720;9.094;2023-01-23T07:16:15;414.00;;;394.83;;
3591;SDS011;1810;48.720;9.094;2023-01-23T07:18:50;507.08;;;481.08;;
3591;SDS011;1810;48.720;9.094;2023-01-23T07:21:21;470.95;;;448.10;;
3591;SDS011;1810;48.720;9.094;2023-01-23T07:23:49;462.23;;;439.83;;
3591;SDS011;1810;48.720;9.094;2023-01-23T07:26:18;415.77;;;396.90;;
3591;SDS011;1810;48.720;9.094;2023-01-23T07:28:46;416.92;;;397.35;;
3591;SDS011;1810;48.720;9.094;2023-01-23T07:31:15;396.77;;;378.88;;
3591;SDS011;1810;48.720;9.094;2023-01-23T07:33:45;413.67;;;394.58;;
3591;SDS011;1810;48.720;9.094;2023-01-23T07:36:14;399.00;;;380.75;;
3591;SDS011;1810;48.720;9.094;2023-01-23T07:38:44;422.33;;;402.85;;
3591;SDS011;1810;48.720;9.094;2023-01-23T07:41:13;399.92;;;381.48;;
3591;SDS011;1810;48.720;9.094;2023-01-23T07:43:49;450.42;;;428.70;;
3591;SDS011;1810;48.720;9.094;2023-01-23T07:46:19;423.85;;;404.13;;
3591;SDS011;1810;48.720;9.094;2023-01-23T07:48:49;403.90;;;384.92;;
3591;SDS011;1810;48.720;9.094;2023-01-23T07:51:18;406.20;;;387.38;;
3591;SDS011;1810;48.720;9.094;2023-01-23T07:53:47;416.70;;;397.50;;
3591;SDS011;1810;48.720;9.094;2023-01-23T07:56:15;376.45;;;359.52;;
3591;SDS011;1810;48.720;9.094;2023-01-23T07:58:48;412.73;;;393.85;;
3591;SDS011;1810;48.720;9.094;2023-01-23T08:01:18;437.67;;;417.25;;
3591;SDS011;1810;48.720;9.094;2023-01-23T08:03:47;401.90;;;383.23;;
3591;SDS011;1810;48.720;9.094;2023-01-23T08:06:15;390.30;;;372.50;;
3591;SDS011;1810;48.720;9.094;2023-01-23T08:08:46;409.67;;;390.58;;
3591;SDS011;1810;48.720;9.094;2023-01-23T08:11:15;404.85;;;385.80;;
3591;SDS011;1810;48.720;9.094;2023-01-23T08:13:47;404.30;;;385.30;;
3591;SDS011;1810;48.720;9.094;2023-01-23T08:16:16;405.92;;;387.20;;
3591;SDS011;1810;48.720;9.094;2023-01-23T08:18:46;486.15;;;461.25;;
3591;SDS011;1810;48.720;9.094;2023-01-23T08:21:15;421.15;;;400.80;;
3591;SDS011;1810;48.720;9.094;2023-01-23T08:23:46;519.05;;;490.70;;
3591;SDS011;1810;48.720;9.094;2023-01-23T08:26:16;410.05;;;390.55;;
3591;SDS011;1810;48.720;9.094;2023-01-23T08:28:44;379.75;;;362.67;;
3591;SDS011;1810;48.720;9.094;2023-01-23T08:31:15;366.77;;;350.58;;
3591;SDS011;1810;48.720;9.094;2023-01-23T08:33:45;376.95;;;359.45;;
3591;SDS011;1810;48.720;9.094;2023-01-23T08:36:14;368.58;;;351.88;;
3591;SDS011;1810;48.720;9.094;2023-01-23T08:38:42;405.88;;;387.00;;
3591;SDS011;1810;48.720;9.094;2023-01-23T08:41:11;358.48;;;341.98;;
3591;SDS011;1810;48.720;9.094;2023-01-23T08:43:45;392.67;;;375.08;;
3591;SDS011;1810;48.720;9.094;2023-01-23T08:46:17;379.92;;;362.52;;
3591;SDS011;1810;48.720;9.094;2023-01-23T08:48:47;367.02;;;350.50;;
3591;SDS011;1810;48.720;9.094;2023-01-23T08:51:16;396.75;;;377.88;;
3591;SDS011;1810;48.720;9.094;2023-01-23T08:53:44;358.45;;;341.65;;
3591;SDS011;1810;48.720;9.094;2023-01-23T08:56:13;381.50;;;363.98;;
3591;SDS011;1810;48.720;9.094;2023-01-23T08:58:42;368.80;;;352.35;;
3591;SDS011;1810;48.720;9.094;2023-01-23T09:01:11;532.38;;;503.50;;
3591;SDS011;1810;48.720;9.094;2023-01-23T09:03:41;461.25;;;438.75;;
3591;SDS011;1810;48.720;9.094;2023-01-23T09:06:11;302.20;;;288.90;;
3591;SDS011;1810;48.720;9.094;2023-01-23T09:08:40;313.65;;;299.67;;
3591;SDS011;1810;48.720;9.094;2023-01-23T09:11:09;295.67;;;282.80;;
3591;SDS011;1810;48.720;9.094;2023-01-23T09:13:38;302.15;;;288.58;;
3591;SDS011;1810;48.720;9.094;2023-01-23T09:16:07;299.30;;;286.45;;
3591;SDS011;1810;48.720;9.094;2023-01-23T09:18:35;357.75;;;341.73;;
3591;SDS011;1810;48.720;9.094;2023-01-23T09:21:04;453.77;;;430.55;;
3591;SDS011;1810;48.720;9.094;2023-01-23T09:23:41;232.57;;;223.00;;
3591;SDS011;1810;48.720;9.094;2023-01-23T09:26:21;299.02;;;285.70;;
3591;SDS011;1810;48.720;9.094;2023-01-23T09:29:17;230.02;;;220.32;;
3591;SDS011;1810;48.720;9.094;2023-01-23T09:32:14;238.95;;;228.82;;
3591;SDS011;1810;48.720;9.094;2023-01-23T09:34:49;229.82;;;220.05;;
3591;SDS011;1810;48.720;9.094;2023-01-23T09:37:23;172.77;;;165.50;;
3591;SDS011;1810;48.720;9.094;2023-01-23T09:40:26;309.52;;;293.73;;
3591;SDS011;1810;48.720;9.094;2023-01-23T09:43:08;226.57;;;215.88;;
3591;SDS011;1810;48.720;9.094;2023-01-23T09:45:43;137.82;;;131.77;;
3591;SDS011;1810;48.720;9.094;2023-01-23T09:48:20;144.93;;;138.50;;
3591;SDS011;1810;48.720;9.094;2023-01-23T09:50:53;130.50;;;124.53;;
3591;SDS011;1810;48.720;9.094;2023-01-23T09:53:32;165.02;;;157.95;;
3591;SDS011;1810;48.720;9.094;2023-01-23T09:56:05;113.18;;;108.38;;
3591;SDS011;1810;48.720;9.094;2023-01-23T09:58:49;134.05;;;128.23;;
3591;SDS011;1810;48.720;9.094;2023-01-23T10:01:29;102.38;;;97.97;;
3591;SDS011;1810;48.720;9.094;2023-01-23T10:04:04;100.00;;;95.68;;
3591;SDS011;1810;48.720;9.094;2023-01-23T10:06:46;103.15;;;98.47;;
3591;SDS011;1810;48.720;9.094;2023-01-23T10:09:27;100.10;;;95.90;;
3591;SDS011;1810;48.720;9.094;2023-01-23T10:12:05;104.55;;;100.15;;
3591;SDS011;1810;48.720;9.094;2023-01-23T10:17:39;102.15;;;97.63;;
3591;SDS011;1810;48.720;9.094;2023-01-23T10:20:20;121.90;;;116.68;;
3591;SDS011;1810;48.720;9.094;2023-01-23T10:23:07;252.38;;;241.25;;
3591;SDS011;1810;48.720;9.094;2023-01-23T10:25:44;109.25;;;104.40;;
3591;SDS011;1810;48.720;9.094;2023-01-23T10:28:23;92.72;;;88.68;;
3591;SDS011;1810;48.720;9.094;2023-01-23T10:31:21;96.18;;;91.82;;
3591;SDS011;1810;48.720;9.094;2023-01-23T10:34:01;110.55;;;105.47;;
3591;SDS011;1810;48.720;9.094;2023-01-23T10:36:34;79.32;;;75.72;;
3591;SDS011;1810;48.720;9.094;2023-01-23T10:39:24;53.35;;;50.65;;
3591;SDS011;1810;48.720;9.094;2023-01-23T10:41:56;66.20;;;63.22;;
3591;SDS011;1810;48.720;9.094;2023-01-23T10:44:31;83.45;;;79.47;;
3591;SDS011;1810;48.720;9.094;2023-01-23T10:47:15;52.88;;;50.17;;
3591;SDS011;1810;48.720;9.094;2023-01-23T10:50:03;46.28;;;43.88;;
3591;SDS011;1810;48.720;9.094;2023-01-23T10:52:34;73.00;;;69.72;;
3591;SDS011;1810;48.720;9.094;2023-01-23T10:55:04;43.95;;;41.45;;
3591;SDS011;1810;48.720;9.094;2023-01-23T10:57:53;46.17;;;43.72;;
3591;SDS011;1810;48.720;9.094;2023-01-23T11:00:34;45.72;;;43.05;;
3591;SDS011;1810;48.720;9.094;2023-01-23T11:03:28;73.13;;;69.68;;
3591;SDS011;1810;48.720;9.094;2023-01-23T11:06:06;46.78;;;44.22;;
3591;SDS011;1810;48.720;9.094;2023-01-23T11:08:42;78.60;;;74.07;;
3591;SDS011;1810;48.720;9.094;2023-01-23T11:11:22;43.85;;;41.70;;
3591;SDS011;1810;48.720;9.094;2023-01-23T11:14:03;54.67;;;51.00;;
3591;SDS011;1810;48.720;9.094;2023-01-23T11:17:01;50.65;;;47.60;;
3591;SDS011;1810;48.720;9.094;2023-01-23T11:19:42;147.40;;;138.77;;
3591;SDS011;1810;48.720;9.094;2023-01-23T11:22:36;56.03;;;53.10;;
3591;SDS011;1810;48.720;9.094;2023-01-23T11:25:27;64.07;;;60.63;;
3591;SDS011;1810;48.720;9.094;2023-01-23T11:28:01;79.13;;;75.50;;
3591;SDS011;1810;48.720;9.094;2023-01-23T11:30:49;78.82;;;75.00;;
3591;SDS011;1810;48.720;9.094;2023-01-23T11:33:44;61.88;;;58.47;;
3591;SDS011;1810;48.720;9.094;2023-01-23T11:36:40;70.25;;;66.82;;
3591;SDS011;1810;48.720;9.094;2023-01-23T11:39:39;64.88;;;61.58;;
3591;SDS011;1810;48.720;9.094;2023-01-23T11:42:26;66.70;;;63.60;;
3591;SDS011;1810;48.720;9.094;2023-01-23T11:45:11;109.65;;;104.90;;
3591;SDS011;1810;48.720;9.094;2023-01-23T11:47:53;66.93;;;63.63;;
3591;SDS011;1810;48.720;9.094;2023-01-23T11:50:29;66.10;;;62.88;;
3591;SDS011;1810;48.720;9.094;2023-01-23T12:09:09;76.57;;;72.95;;
3591;SDS011;1810;48.720;9.094;2023-01-23T12:12:24;72.07;;;68.60;;
3591;SDS011;1810;48.720;9.094;2023-01-23T12:19:06;85.90;;;81.88;;
3591;SDS011;1810;48.720;9.094;2023-01-23T12:33:55;196.75;;;186.50;;
3591;SDS011;1810;48.720;9.094;2023-01-23T12:37:38;71.88;;;68.32;;
3591;SDS011;1810;48.720;9.094;2023-01-23T12:40:17;79.45;;;75.57;;
3591;SDS011;1810;48.720;9.094;2023-01-23T12:42:50;93.38;;;88.78;;
3591;SDS011;1810;48.720;9.094;2023-01-23T12:45:32;87.65;;;83.82;;
3591;SDS011;1810;48.720;9.094;2023-01-23T12:48:02;258.02;;;245.30;;
3591;SDS011;1810;48.720;9.094;2023-01-23T12:50:37;165.32;;;158.05;;
3591;SDS011;1810;48.720;9.094;2023-01-23T12:53:09;83.63;;;79.53;;
3591;SDS011;1810;48.720;9.094;2023-01-23T12:55:45;85.78;;;81.88;;
3591;SDS011;1810;48.720;9.094;2023-01-23T12:58:22;83.82;;;79.90;;
3591;SDS011;1810;48.720;9.094;2023-01-23T13:03:55;125.32;;;119.63;;
3591;SDS011;1810;48.720;9.094;2023-01-23T13:09:41;79.47;;;75.50;;
3591;SDS011;1810;48.720;9.094;2023-01-23T13:16:03;93.70;;;89.05;;
3591;SDS011;1810;48.720;9.094;2023-01-23T13:18:53;84.40;;;80.40;;
3591;SDS011;1810;48.720;9.094;2023-01-23T13:24:36;141.73;;;134.50;;
3591;SDS011;1810;48.720;9.094;2023-01-23T13:27:34;80.65;;;76.72;;
3591;SDS011;1810;48.720;9.094;2023-01-23T13:36:21;95.22;;;90.85;;
3591;SDS011;1810;48.720;9.094;2023-01-23T13:39:02;71.38;;;68.03;;
3591;SDS011;1810;48.720;9.094;2023-01-23T13:41:38;91.95;;;87.38;;
3591;SDS011;1810;48.720;9.094;2023-01-23T13:44:15;83.40;;;79.22;;
3591;SDS011;1810;48.720;9.094;2023-01-23T13:46:50;116.85;;;111.70;;
3591;SDS011;1810;48.720;9.094;2023-01-23T13:49:39;150.60;;;143.73;;
3591;SDS011;1810;48.720;9.094;2023-01-23T13:52:35;124.03;;;118.55;;
3591;SDS011;1810;48.720;9.094;2023-01-23T13:55:38;103.32;;;98.18;;
3591;SDS011;1810;48.720;9.094;2023-01-23T13:58:41;83.97;;;79.75;;
3591;SDS011;1810;48.720;9.094;2023-01-23T14:01:24;111.63;;;106.93;;
3591;SDS011;1810;48.720;9.094;2023-01-23T14:04:26;252.25;;;238.07;;
3591;SDS011;1810;48.720;9.094;2023-01-23T14:07:28;80.60;;;76.38;;
3591;SDS011;1810;48.720;9.094;2023-01-23T14:13:49;144.30;;;138.18;;
3591;SDS011;1810;48.720;9.094;2023-01-23T14:17:54;89.90;;;85.93;;
3591;SDS011;1810;48.720;9.094;2023-01-23T14:20:37;284.77;;;271.13;;
3591;SDS011;1810;48.720;9.094;2023-01-23T14:23:27;90.82;;;86.60;;
3591;SDS011;1810;48.720;9.094;2023-01-23T14:26:09;131.52;;;125.78;;
3591;SDS011;1810;48.720;9.094;2023-01-23T14:28:52;96.07;;;91.47;;
3591;SDS011;1810;48.720;9.094;2023-01-23T14:34:04;211.50;;;202.32;;
3591;SDS011;1810;48.720;9.094;2023-01-23T14:36:49;95.25;;;90.82;;
3591;SDS011;1810;48.720;9.094;2023-01-23T14:39:43;170.02;;;162.60;;
3591;SDS011;1810;48.720;9.094;2023-01-23T14:42:21;141.35;;;135.05;;
3591;SDS011;1810;48.720;9.094;2023-01-23T14:44:53;110.43;;;105.70;;
3591;SDS011;1810;48.720;9.094;2023-01-23T14:47:31;123.57;;;118.38;;
3591;SDS011;1810;48.720;9.094;2023-01-23T14:50:02;121.32;;;116.00;;
3591;SDS011;1810;48.720;9.094;2023-01-23T14:52:38;173.45;;;165.90;;
3591;SDS011;1810;48.720;9.094;2023-01-23T14:55:17;144.25;;;138.25;;
3591;SDS011;1810;48.720;9.094;2023-01-23T14:57:56;163.75;;;156.75;;
3591;SDS011;1810;48.720;9.094;2023-01-23T15:00:27;144.38;;;138.50;;
3591;SDS011;1810;48.720;9.094;2023-01-23T15:02:56;134.82;;;129.10;;
3591;SDS011;1810;48.720;9.094;2023-01-23T15:05:26;177.57;;;169.52;;
3591;SDS011;1810;48.720;9.094;2023-01-23T15:07:55;211.93;;;202.68;;
3591;SDS011;1810;48.720;9.094;2023-01-23T15:10:26;182.80;;;175.00;;
3591;SDS011;1810;48.720;9.094;2023-01-23T15:12:56;141.93;;;136.13;;
3591;SDS011;1810;48.720;9.094;2023-01-23T15:15:41;150.63;;;144.00;;
3591;SDS011;1810;48.720;9.094;2023-01-23T15:18:39;152.13;;;145.57;;
3591;SDS011;1810;48.720;9.094;2023-01-23T15:21:28;158.02;;;151.35;;
3591;SDS011;1810;48.720;9.094;2023-01-23T15:23:59;234.95;;;224.57;;
3591;SDS011;1810;48.720;9.094;2023-01-23T15:26:33;173.60;;;166.25;;
3591;SDS011;1810;48.720;9.094;2023-01-23T15:29:03;294.67;;;281.15;;
3591;SDS011;1810;48.720;9.094;2023-01-23T15:31:45;164.32;;;157.20;;
3591;SDS011;1810;48.720;9.094;2023-01-23T15:34:18;337.98;;;321.30;;
3591;SDS011;1810;48.720;9.094;2023-01-23T15:36:50;145.02;;;139.13;;
3591;SDS011;1810;48.720;9.094;2023-01-23T15:46:01;165.82;;;159.07;;
3591;SDS011;1810;48.720;9.094;2023-01-23T15:49:02;144.02;;;137.57;;
3591;SDS011;1810;48.720;9.094;2023-01-23T15:52:28;301.98;;;288.45;;
3591;SDS011;1810;48.720;9.094;2023-01-23T15:54:58;175.98;;;168.75;;
3591;SDS011;1810;48.720;9.094;2023-01-23T16:00:33;194.55;;;186.40;;
3591;SDS011;1810;48.720;9.094;2023-01-23T16:03:03;210.15;;;201.23;;
3591;SDS011;1810;48.720;9.094;2023-01-23T16:05:43;166.85;;;159.77;;
3591;SDS011;1810;48.720;9.094;2023-01-23T16:08:17;250.77;;;238.95;;
3591;SDS011;1810;48.720;9.094;2023-01-23T16:10:53;173.15;;;165.93;;
3591;SDS011;1810;48.720;9.094;2023-01-23T16:13:22;199.73;;;191.48;;
3591;SDS011;1810;48.720;9.094;2023-01-23T16:15:51;161.25;;;154.50;;
3591;SDS011;1810;48.720;9.094;2023-01-23T16:18:20;171.13;;;164.07;;
3591;SDS011;1810;48.720;9.094;2023-01-23T16:20:51;198.00;;;189.82;;
3591;SDS011;1810;48.720;9.094;2023-01-23T16:23:20;177.95;;;170.43;;
3591;SDS011;1810;48.720;9.094;2023-01-23T16:25:50;196.43;;;188.15;;
3591;SDS011;1810;48.720;9.094;2023-01-23T16:28:20;218.90;;;209.38;;
3591;SDS011;1810;48.720;9.094;2023-01-23T16:30:53;160.20;;;153.25;;
3591;SDS011;1810;48.720;9.094;2023-01-23T16:33:28;261.25;;;249.80;;